sensor_id;sensor_type;location;lat;lon;timestamp;P1;durP1;ratioP1;P2;durP2;ratioP2
28587;SDS011;15787;49.662;10.162;2022-08-03T00:00:31;5.68;;;2.13;;
28587;SDS011;15787;49.662;10.162;2022-08-03T00:02:58;6.95;;;2.40;;
28587;SDS011;15787;49.662;10.162;2022-08-03T00:05:27;6.18;;;2.22;;
28587;SDS011;15787;49.662;10.162;2022-08-03T00:07:54;5.30;;;1.85;;
28587;SDS011;15787;49.662;10.162;2022-08-03T00:10:23;8.10;;;2.45;;
28587;SDS011;15787;49.662;10.162;2022-08-03T00:12:52;8.65;;;2.17;;
28587;SDS011;15787;49.662;10.162;2022-08-03T00:15:20;5.22;;;2.15;;
28587;SDS011;15787;49.662;10.162;2022-08-03T00:17:48;4.55;;;2.15;;
28587;SDS011;15787;49.662;10.162;2022-08-03T00:20:19;7.82;;;2.10;;
28587;SDS011;15787;49.662;10.162;2022-08-03T00:22:47;4.35;;;2.30;;
28587;SDS011;15787;49.662;10.162;2022-08-03T00:25:15;6.10;;;2.25;;
28587;SDS011;15787;49.662;10.162;2022-08-03T00:27:45;3.05;;;1.90;;
28587;SDS011;15787;49.662;10.162;2022-08-03T00:30:16;3.92;;;2.40;;
28587;SDS011;15787;49.662;10.162;2022-08-03T00:32:45;7.82;;;2.30;;
28587;SDS011;15787;49.662;10.162;2022-08-03T00:35:13;7.78;;;2.22;;
28587;SDS011;15787;49.662;10.162;2022-08-03T00:38:01;5.82;;;2.47;;
28587;SDS011;15787;49.662;10.162;2022-08-03T00:40:29;6.70;;;2.15;;
28587;SDS011;15787;49.662;10.162;2022-08-03T00:42:59;6.90;;;2.60;;
28587;SDS011;15787;49.662;10.162;2022-08-03T00:45:28;5.28;;;2.10;;
28587;SDS011;15787;49.662;10.162;2022-08-03T00:47:57;6.80;;;2.00;;
28587;SDS011;15787;49.662;10.162;2022-08-03T00:50:26;7.05;;;2.70;;
28587;SDS011;15787;49.662;10.162;2022-08-03T00:52:56;4.80;;;2.22;;
28587;SDS011;15787;49.662;10.162;2022-08-03T00:55:26;7.43;;;2.50;;
28587;SDS011;15787;49.662;10.162;2022-08-03T00:57:54;7.03;;;2.90;;
28587;SDS011;15787;49.662;10.162;2022-08-03T01:02:54;4.40;;;2.03;;
28587;SDS011;15787;49.662;10.162;2022-08-03T01:05:22;4.00;;;1.90;;
28587;SDS011;15787;49.662;10.162;2022-08-03T01:07:53;4.90;;;2.00;;
28587;SDS011;15787;49.662;10.162;2022-08-03T01:10:32;4.63;;;2.20;;
28587;SDS011;15787;49.662;10.162;2022-08-03T01:13:09;3.17;;;1.83;;
28587;SDS011;15787;49.662;10.162;2022-08-03T01:16:08;6.50;;;2.17;;
28587;SDS011;15787;49.662;10.162;2022-08-03T01:18:43;4.20;;;2.10;;
28587;SDS011;15787;49.662;10.162;2022-08-03T01:21:15;4.90;;;2.50;;
28587;SDS011;15787;49.662;10.162;2022-08-03T01:24:04;4.25;;;2.58;;
28587;SDS011;15787;49.662;10.162;2022-08-03T01:26:47;6.63;;;2.05;;
28587;SDS011;15787;49.662;10.162;2022-08-03T01:29:43;4.10;;;1.90;;
28587;SDS011;15787;49.662;10.162;2022-08-03T01:32:20;5.53;;;2.58;;
28587;SDS011;15787;49.662;10.162;2022-08-03T01:35:12;8.23;;;2.45;;
28587;SDS011;15787;49.662;10.162;2022-08-03T01:37:46;3.28;;;2.05;;
28587;SDS011;15787;49.662;10.162;2022-08-03T01:40:18;4.35;;;2.10;;
28587;SDS011;15787;49.662;10.162;2022-08-03T01:42:48;3.08;;;2.55;;
28587;SDS011;15787;49.662;10.162;2022-08-03T01:45:19;4.75;;;2.25;;
28587;SDS011;15787;49.662;10.162;2022-08-03T01:47:48;5.00;;;2.60;;
28587;SDS011;15787;49.662;10.162;2022-08-03T01:50:18;4.10;;;2.00;;
28587;SDS011;15787;49.662;10.162;2022-08-03T01:55:17;3.67;;;2.13;;
28587;SDS011;15787;49.662;10.162;2022-08-03T01:57:46;5.10;;;2.10;;
28587;SDS011;15787;49.662;10.162;2022-08-03T02:00:33;4.03;;;2.08;;
28587;SDS011;15787;49.662;10.162;2022-08-03T02:03:03;4.82;;;2.17;;
28587;SDS011;15787;49.662;10.162;2022-08-03T02:05:33;4.00;;;2.47;;
28587;SDS011;15787;49.662;10.162;2022-08-03T02:08:02;4.55;;;2.28;;
28587;SDS011;15787;49.662;10.162;2022-08-03T02:10:33;5.90;;;2.22;;
28587;SDS011;15787;49.662;10.162;2022-08-03T02:13:02;2.80;;;1.70;;
28587;SDS011;15787;49.662;10.162;2022-08-03T02:15:34;3.47;;;2.05;;
28587;SDS011;15787;49.662;10.162;2022-08-03T02:18:04;4.05;;;1.85;;
28587;SDS011;15787;49.662;10.162;2022-08-03T02:20:35;6.47;;;2.45;;
28587;SDS011;15787;49.662;10.162;2022-08-03T02:23:04;4.47;;;2.55;;
28587;SDS011;15787;49.662;10.162;2022-08-03T02:25:33;2.85;;;2.08;;
28587;SDS011;15787;49.662;10.162;2022-08-03T02:28:06;3.88;;;2.30;;
28587;SDS011;15787;49.662;10.162;2022-08-03T02:30:39;3.65;;;2.42;;
28587;SDS011;15787;49.662;10.162;2022-08-03T02:33:18;3.75;;;2.25;;
28587;SDS011;15787;49.662;10.162;2022-08-03T02:35:50;4.03;;;2.17;;
28587;SDS011;15787;49.662;10.162;2022-08-03T02:38:22;2.80;;;1.90;;
28587;SDS011;15787;49.662;10.162;2022-08-03T02:40:54;3.88;;;2.15;;
28587;SDS011;15787;49.662;10.162;2022-08-03T02:46:05;7.28;;;2.97;;
28587;SDS011;15787;49.662;10.162;2022-08-03T02:48:36;5.90;;;2.55;;
28587;SDS011;15787;49.662;10.162;2022-08-03T02:51:07;7.30;;;2.65;;
28587;SDS011;15787;49.662;10.162;2022-08-03T02:53:36;4.72;;;2.70;;
28587;SDS011;15787;49.662;10.162;2022-08-03T02:56:05;4.45;;;2.58;;
28587;SDS011;15787;49.662;10.162;2022-08-03T02:58:35;3.95;;;2.60;;
28587;SDS011;15787;49.662;10.162;2022-08-03T03:01:06;3.88;;;2.47;;
28587;SDS011;15787;49.662;10.162;2022-08-03T03:03:34;5.10;;;2.50;;
28587;SDS011;15787;49.662;10.162;2022-08-03T03:06:10;8.32;;;2.90;;
28587;SDS011;15787;49.662;10.162;2022-08-03T03:08:40;6.22;;;3.10;;
28587;SDS011;15787;49.662;10.162;2022-08-03T03:11:09;7.07;;;3.47;;
28587;SDS011;15787;49.662;10.162;2022-08-03T03:13:37;7.05;;;2.60;;
28587;SDS011;15787;49.662;10.162;2022-08-03T03:16:08;7.60;;;2.95;;
28587;SDS011;15787;49.662;10.162;2022-08-03T03:18:39;4.78;;;2.40;;
28587;SDS011;15787;49.662;10.162;2022-08-03T03:21:09;4.00;;;2.67;;
28587;SDS011;15787;49.662;10.162;2022-08-03T03:23:38;7.32;;;2.50;;
28587;SDS011;15787;49.662;10.162;2022-08-03T03:26:08;5.70;;;2.50;;
28587;SDS011;15787;49.662;10.162;2022-08-03T03:28:36;6.68;;;2.72;;
28587;SDS011;15787;49.662;10.162;2022-08-03T03:31:04;7.20;;;2.30;;
28587;SDS011;15787;49.662;10.162;2022-08-03T03:33:34;3.33;;;2.25;;
28587;SDS011;15787;49.662;10.162;2022-08-03T03:38:32;6.57;;;2.80;;
28587;SDS011;15787;49.662;10.162;2022-08-03T03:41:00;4.00;;;2.72;;
28587;SDS011;15787;49.662;10.162;2022-08-03T03:43:28;5.05;;;2.70;;
28587;SDS011;15787;49.662;10.162;2022-08-03T03:45:57;3.95;;;2.67;;
28587;SDS011;15787;49.662;10.162;2022-08-03T03:48:25;5.55;;;2.95;;
28587;SDS011;15787;49.662;10.162;2022-08-03T03:50:55;3.05;;;2.35;;
28587;SDS011;15787;49.662;10.162;2022-08-03T03:53:24;2.53;;;1.80;;
28587;SDS011;15787;49.662;10.162;2022-08-03T03:55:52;3.80;;;2.47;;
28587;SDS011;15787;49.662;10.162;2022-08-03T03:58:28;5.88;;;2.60;;
28587;SDS011;15787;49.662;10.162;2022-08-03T04:00:57;5.20;;;2.67;;
28587;SDS011;15787;49.662;10.162;2022-08-03T04:03:25;6.10;;;2.35;;
28587;SDS011;15787;49.662;10.162;2022-08-03T04:05:53;4.03;;;2.80;;
28587;SDS011;15787;49.662;10.162;2022-08-03T04:08:40;3.65;;;2.08;;
28587;SDS011;15787;49.662;10.162;2022-08-03T04:11:42;5.30;;;2.78;;
28587;SDS011;15787;49.662;10.162;2022-08-03T04:14:15;4.72;;;2.60;;
28587;SDS011;15787;49.662;10.162;2022-08-03T04:16:47;7.40;;;2.90;;
28587;SDS011;15787;49.662;10.162;2022-08-03T04:19:18;4.30;;;2.95;;
28587;SDS011;15787;49.662;10.162;2022-08-03T04:21:53;4.25;;;2.55;;
28587;SDS011;15787;49.662;10.162;2022-08-03T04:24:28;4.97;;;2.90;;
28587;SDS011;15787;49.662;10.162;2022-08-03T04:27:01;5.45;;;3.10;;
28587;SDS011;15787;49.662;10.162;2022-08-03T04:29:32;5.13;;;2.92;;
28587;SDS011;15787;49.662;10.162;2022-08-03T04:32:04;5.68;;;3.08;;
28587;SDS011;15787;49.662;10.162;2022-08-03T04:34:34;3.30;;;2.40;;
28587;SDS011;15787;49.662;10.162;2022-08-03T04:37:04;3.20;;;2.20;;
28587;SDS011;15787;49.662;10.162;2022-08-03T04:39:38;3.83;;;2.28;;
28587;SDS011;15787;49.662;10.162;2022-08-03T04:42:10;4.38;;;2.20;;
28587;SDS011;15787;49.662;10.162;2022-08-03T04:44:40;8.93;;;2.60;;
28587;SDS011;15787;49.662;10.162;2022-08-03T04:47:10;4.47;;;2.63;;
28587;SDS011;15787;49.662;10.162;2022-08-03T04:49:38;6.30;;;2.35;;
28587;SDS011;15787;49.662;10.162;2022-08-03T04:52:07;3.03;;;2.30;;
28587;SDS011;15787;49.662;10.162;2022-08-03T04:54:41;4.22;;;2.42;;
28587;SDS011;15787;49.662;10.162;2022-08-03T04:57:16;3.20;;;2.17;;
28587;SDS011;15787;49.662;10.162;2022-08-03T04:59:49;14.98;;;5.03;;
28587;SDS011;15787;49.662;10.162;2022-08-03T05:02:28;4.70;;;2.58;;
28587;SDS011;15787;49.662;10.162;2022-08-03T05:04:56;6.18;;;3.15;;
28587;SDS011;15787;49.662;10.162;2022-08-03T05:07:24;6.95;;;2.80;;
28587;SDS011;15787;49.662;10.162;2022-08-03T05:10:04;5.18;;;2.78;;
28587;SDS011;15787;49.662;10.162;2022-08-03T05:12:41;4.30;;;2.83;;
28587;SDS011;15787;49.662;10.162;2022-08-03T05:15:10;3.67;;;2.78;;
28587;SDS011;15787;49.662;10.162;2022-08-03T05:17:38;3.45;;;2.75;;
28587;SDS011;15787;49.662;10.162;2022-08-03T05:20:07;3.03;;;2.50;;
28587;SDS011;15787;49.662;10.162;2022-08-03T05:22:36;3.88;;;3.00;;
28587;SDS011;15787;49.662;10.162;2022-08-03T05:25:05;4.75;;;2.50;;
28587;SDS011;15787;49.662;10.162;2022-08-03T05:27:34;5.93;;;2.92;;
28587;SDS011;15787;49.662;10.162;2022-08-03T05:30:02;6.88;;;3.28;;
28587;SDS011;15787;49.662;10.162;2022-08-03T05:32:51;5.82;;;3.05;;
28587;SDS011;15787;49.662;10.162;2022-08-03T05:35:19;6.05;;;3.10;;
28587;SDS011;15787;49.662;10.162;2022-08-03T05:38:07;5.80;;;3.72;;
28587;SDS011;15787;49.662;10.162;2022-08-03T05:40:37;6.00;;;3.95;;
28587;SDS011;15787;49.662;10.162;2022-08-03T05:43:22;6.88;;;4.32;;
28587;SDS011;15787;49.662;10.162;2022-08-03T05:45:49;8.77;;;3.75;;
28587;SDS011;15787;49.662;10.162;2022-08-03T05:48:37;5.25;;;3.97;;
28587;SDS011;15787;49.662;10.162;2022-08-03T05:51:05;4.60;;;3.50;;
28587;SDS011;15787;49.662;10.162;2022-08-03T05:53:37;4.50;;;3.75;;
28587;SDS011;15787;49.662;10.162;2022-08-03T05:56:06;5.38;;;3.20;;
28587;SDS011;15787;49.662;10.162;2022-08-03T05:58:40;7.88;;;3.40;;
28587;SDS011;15787;49.662;10.162;2022-08-03T06:01:08;5.43;;;3.78;;
28587;SDS011;15787;49.662;10.162;2022-08-03T06:03:37;4.13;;;3.03;;
28587;SDS011;15787;49.662;10.162;2022-08-03T06:06:05;4.95;;;3.75;;
28587;SDS011;15787;49.662;10.162;2022-08-03T06:08:33;4.43;;;3.10;;
28587;SDS011;15787;49.662;10.162;2022-08-03T06:11:01;4.35;;;3.28;;
28587;SDS011;15787;49.662;10.162;2022-08-03T06:13:31;4.57;;;2.97;;
28587;SDS011;15787;49.662;10.162;2022-08-03T06:15:59;5.20;;;3.83;;
28587;SDS011;15787;49.662;10.162;2022-08-03T06:18:27;4.95;;;3.78;;
28587;SDS011;15787;49.662;10.162;2022-08-03T06:20:55;5.15;;;3.40;;
28587;SDS011;15787;49.662;10.162;2022-08-03T06:23:35;4.75;;;3.30;;
28587;SDS011;15787;49.662;10.162;2022-08-03T06:26:20;4.95;;;3.22;;
28587;SDS011;15787;49.662;10.162;2022-08-03T06:28:49;4.68;;;3.22;;
28587;SDS011;15787;49.662;10.162;2022-08-03T06:31:20;4.78;;;3.00;;
28587;SDS011;15787;49.662;10.162;2022-08-03T06:33:49;5.27;;;3.67;;
28587;SDS011;15787;49.662;10.162;2022-08-03T06:36:37;4.38;;;2.67;;
28587;SDS011;15787;49.662;10.162;2022-08-03T06:39:05;5.38;;;3.40;;
28587;SDS011;15787;49.662;10.162;2022-08-03T06:41:34;5.45;;;3.03;;
28587;SDS011;15787;49.662;10.162;2022-08-03T06:44:11;4.72;;;2.85;;
28587;SDS011;15787;49.662;10.162;2022-08-03T06:46:40;5.05;;;2.67;;
28587;SDS011;15787;49.662;10.162;2022-08-03T06:49:08;5.60;;;2.28;;
28587;SDS011;15787;49.662;10.162;2022-08-03T06:51:36;3.58;;;2.72;;
28587;SDS011;15787;49.662;10.162;2022-08-03T06:54:24;6.00;;;2.80;;
28587;SDS011;15787;49.662;10.162;2022-08-03T06:56:52;4.95;;;2.75;;
28587;SDS011;15787;49.662;10.162;2022-08-03T06:59:22;4.07;;;2.40;;
28587;SDS011;15787;49.662;10.162;2022-08-03T07:02:09;5.60;;;2.50;;
28587;SDS011;15787;49.662;10.162;2022-08-03T07:04:44;4.68;;;2.55;;
28587;SDS011;15787;49.662;10.162;2022-08-03T07:07:12;4.15;;;2.55;;
28587;SDS011;15787;49.662;10.162;2022-08-03T07:09:40;3.47;;;2.45;;
28587;SDS011;15787;49.662;10.162;2022-08-03T07:12:22;2.83;;;1.77;;
28587;SDS011;15787;49.662;10.162;2022-08-03T07:14:52;3.05;;;2.15;;
28587;SDS011;15787;49.662;10.162;2022-08-03T07:17:26;3.80;;;2.00;;
28587;SDS011;15787;49.662;10.162;2022-08-03T07:19:54;3.72;;;2.17;;
28587;SDS011;15787;49.662;10.162;2022-08-03T07:22:22;4.55;;;2.35;;
28587;SDS011;15787;49.662;10.162;2022-08-03T07:24:50;4.40;;;1.60;;
28587;SDS011;15787;49.662;10.162;2022-08-03T07:27:18;4.93;;;1.90;;
28587;SDS011;15787;49.662;10.162;2022-08-03T07:29:46;4.30;;;1.77;;
28587;SDS011;15787;49.662;10.162;2022-08-03T07:32:15;3.42;;;1.85;;
28587;SDS011;15787;49.662;10.162;2022-08-03T07:34:44;2.55;;;1.75;;
28587;SDS011;15787;49.662;10.162;2022-08-03T07:37:11;4.70;;;1.83;;
28587;SDS011;15787;49.662;10.162;2022-08-03T07:39:39;2.70;;;1.80;;
28587;SDS011;15787;49.662;10.162;2022-08-03T07:42:07;2.75;;;1.75;;
28587;SDS011;15787;49.662;10.162;2022-08-03T07:44:35;3.00;;;1.90;;
28587;SDS011;15787;49.662;10.162;2022-08-03T07:47:04;5.22;;;1.73;;
28587;SDS011;15787;49.662;10.162;2022-08-03T07:49:39;3.80;;;1.85;;
28587;SDS011;15787;49.662;10.162;2022-08-03T07:52:07;7.18;;;1.70;;
28587;SDS011;15787;49.662;10.162;2022-08-03T07:54:54;6.00;;;1.70;;
28587;SDS011;15787;49.662;10.162;2022-08-03T07:57:22;4.95;;;1.65;;
28587;SDS011;15787;49.662;10.162;2022-08-03T07:59:50;7.55;;;1.63;;
28587;SDS011;15787;49.662;10.162;2022-08-03T08:02:37;4.68;;;1.95;;
28587;SDS011;15787;49.662;10.162;2022-08-03T08:05:06;6.13;;;1.90;;
28587;SDS011;15787;49.662;10.162;2022-08-03T08:07:36;3.28;;;1.75;;
28587;SDS011;15787;49.662;10.162;2022-08-03T08:10:04;3.08;;;1.83;;
28587;SDS011;15787;49.662;10.162;2022-08-03T08:12:33;5.07;;;1.60;;
28587;SDS011;15787;49.662;10.162;2022-08-03T08:15:01;2.22;;;1.58;;
28587;SDS011;15787;49.662;10.162;2022-08-03T08:17:29;4.75;;;1.67;;
28587;SDS011;15787;49.662;10.162;2022-08-03T08:19:57;7.25;;;1.67;;
28587;SDS011;15787;49.662;10.162;2022-08-03T08:22:26;4.55;;;1.73;;
28587;SDS011;15787;49.662;10.162;2022-08-03T08:24:57;5.03;;;1.83;;
28587;SDS011;15787;49.662;10.162;2022-08-03T08:27:26;3.92;;;1.50;;
28587;SDS011;15787;49.662;10.162;2022-08-03T08:30:15;4.82;;;1.65;;
28587;SDS011;15787;49.662;10.162;2022-08-03T08:32:45;6.38;;;1.23;;
28587;SDS011;15787;49.662;10.162;2022-08-03T08:35:13;4.65;;;1.60;;
28587;SDS011;15787;49.662;10.162;2022-08-03T08:37:43;7.53;;;1.92;;
28587;SDS011;15787;49.662;10.162;2022-08-03T08:40:16;2.88;;;1.60;;
28587;SDS011;15787;49.662;10.162;2022-08-03T08:42:48;2.10;;;1.55;;
28587;SDS011;15787;49.662;10.162;2022-08-03T08:45:24;2.10;;;1.48;;
28587;SDS011;15787;49.662;10.162;2022-08-03T08:47:53;6.03;;;1.83;;
28587;SDS011;15787;49.662;10.162;2022-08-03T08:50:28;3.15;;;1.45;;
28587;SDS011;15787;49.662;10.162;2022-08-03T08:52:58;2.95;;;1.50;;
28587;SDS011;15787;49.662;10.162;2022-08-03T08:55:28;2.67;;;1.88;;
28587;SDS011;15787;49.662;10.162;2022-08-03T08:58:16;3.00;;;1.33;;
28587;SDS011;15787;49.662;10.162;2022-08-03T09:00:47;2.10;;;1.60;;
28587;SDS011;15787;49.662;10.162;2022-08-03T09:03:17;5.33;;;1.83;;
28587;SDS011;15787;49.662;10.162;2022-08-03T09:05:56;2.10;;;1.48;;
28587;SDS011;15787;49.662;10.162;2022-08-03T09:08:27;1.73;;;1.48;;
28587;SDS011;15787;49.662;10.162;2022-08-03T09:10:55;2.78;;;1.73;;
28587;SDS011;15787;49.662;10.162;2022-08-03T09:13:23;2.88;;;1.63;;
28587;SDS011;15787;49.662;10.162;2022-08-03T09:18:41;5.65;;;1.25;;
28587;SDS011;15787;49.662;10.162;2022-08-03T09:24:00;1.95;;;1.30;;
28587;SDS011;15787;49.662;10.162;2022-08-03T09:26:34;3.10;;;1.23;;
28587;SDS011;15787;49.662;10.162;2022-08-03T09:29:04;3.20;;;1.30;;
28587;SDS011;15787;49.662;10.162;2022-08-03T09:31:40;2.40;;;1.15;;
28587;SDS011;15787;49.662;10.162;2022-08-03T09:34:11;2.90;;;1.52;;
28587;SDS011;15787;49.662;10.162;2022-08-03T09:36:41;2.55;;;1.23;;
28587;SDS011;15787;49.662;10.162;2022-08-03T09:39:13;5.43;;;1.23;;
28587;SDS011;15787;49.662;10.162;2022-08-03T09:41:43;1.15;;;0.93;;
28587;SDS011;15787;49.662;10.162;2022-08-03T09:44:13;3.22;;;1.40;;
28587;SDS011;15787;49.662;10.162;2022-08-03T09:46:52;1.67;;;1.15;;
28587;SDS011;15787;49.662;10.162;2022-08-03T09:49:21;2.50;;;1.35;;
28587;SDS011;15787;49.662;10.162;2022-08-03T09:51:50;2.20;;;1.30;;
28587;SDS011;15787;49.662;10.162;2022-08-03T09:54:39;1.70;;;1.10;;
28587;SDS011;15787;49.662;10.162;2022-08-03T09:57:08;1.42;;;1.20;;
28587;SDS011;15787;49.662;10.162;2022-08-03T09:59:47;3.03;;;1.23;;
28587;SDS011;15787;49.662;10.162;2022-08-03T10:02:22;2.33;;;1.20;;
28587;SDS011;15787;49.662;10.162;2022-08-03T10:04:51;3.35;;;1.23;;
28587;SDS011;15787;49.662;10.162;2022-08-03T10:07:20;2.63;;;1.10;;
28587;SDS011;15787;49.662;10.162;2022-08-03T10:09:54;2.85;;;1.15;;
28587;SDS011;15787;49.662;10.162;2022-08-03T10:12:43;4.75;;;1.40;;
28587;SDS011;15787;49.662;10.162;2022-08-03T10:18:01;1.70;;;1.13;;
28587;SDS011;15787;49.662;10.162;2022-08-03T10:20:29;2.90;;;1.20;;
28587;SDS011;15787;49.662;10.162;2022-08-03T10:22:59;2.03;;;1.30;;
28587;SDS011;15787;49.662;10.162;2022-08-03T10:25:30;1.55;;;1.17;;
28587;SDS011;15787;49.662;10.162;2022-08-03T10:28:01;6.30;;;1.58;;
28587;SDS011;15787;49.662;10.162;2022-08-03T10:30:30;1.55;;;1.45;;
28587;SDS011;15787;49.662;10.162;2022-08-03T10:33:00;1.70;;;1.23;;
28587;SDS011;15787;49.662;10.162;2022-08-03T10:35:53;2.45;;;1.17;;
28587;SDS011;15787;49.662;10.162;2022-08-03T10:38:25;3.22;;;1.20;;
28587;SDS011;15787;49.662;10.162;2022-08-03T10:40:58;3.60;;;1.17;;
28587;SDS011;15787;49.662;10.162;2022-08-03T10:43:31;1.92;;;1.20;;
28587;SDS011;15787;49.662;10.162;2022-08-03T10:46:02;1.98;;;1.30;;
28587;SDS011;15787;49.662;10.162;2022-08-03T10:48:34;2.33;;;1.50;;
28587;SDS011;15787;49.662;10.162;2022-08-03T10:51:03;2.67;;;1.37;;
28587;SDS011;15787;49.662;10.162;2022-08-03T10:53:33;2.05;;;1.20;;
28587;SDS011;15787;49.662;10.162;2022-08-03T10:56:04;4.82;;;1.75;;
28587;SDS011;15787;49.662;10.162;2022-08-03T10:59:09;5.63;;;1.73;;
28587;SDS011;15787;49.662;10.162;2022-08-03T11:01:49;4.55;;;1.25;;
28587;SDS011;15787;49.662;10.162;2022-08-03T11:04:25;3.65;;;1.13;;
28587;SDS011;15787;49.662;10.162;2022-08-03T11:09:48;4.85;;;1.50;;
28587;SDS011;15787;49.662;10.162;2022-08-03T11:12:22;1.73;;;1.25;;
28587;SDS011;15787;49.662;10.162;2022-08-03T11:14:57;2.38;;;1.08;;
28587;SDS011;15787;49.662;10.162;2022-08-03T11:19:53;1.50;;;1.20;;
28587;SDS011;15787;49.662;10.162;2022-08-03T11:22:23;2.08;;;0.93;;
28587;SDS011;15787;49.662;10.162;2022-08-03T11:24:57;3.58;;;1.35;;
28587;SDS011;15787;49.662;10.162;2022-08-03T11:27:27;3.53;;;1.00;;
28587;SDS011;15787;49.662;10.162;2022-08-03T11:30:00;3.85;;;1.27;;
28587;SDS011;15787;49.662;10.162;2022-08-03T11:35:19;6.18;;;1.23;;
28587;SDS011;15787;49.662;10.162;2022-08-03T11:38:07;4.15;;;1.10;;
28587;SDS011;15787;49.662;10.162;2022-08-03T11:40:38;1.70;;;1.02;;
28587;SDS011;15787;49.662;10.162;2022-08-03T11:43:09;2.33;;;1.63;;
28587;SDS011;15787;49.662;10.162;2022-08-03T11:46:11;1.85;;;0.98;;
28587;SDS011;15787;49.662;10.162;2022-08-03T11:48:59;2.70;;;1.17;;
28587;SDS011;15787;49.662;10.162;2022-08-03T11:51:36;1.73;;;1.00;;
28587;SDS011;15787;49.662;10.162;2022-08-03T11:54:05;1.92;;;1.10;;
28587;SDS011;15787;49.662;10.162;2022-08-03T11:56:42;3.85;;;1.40;;
28587;SDS011;15787;49.662;10.162;2022-08-03T11:59:12;1.50;;;1.10;;
28587;SDS011;15787;49.662;10.162;2022-08-03T12:01:46;4.07;;;1.33;;
28587;SDS011;15787;49.662;10.162;2022-08-03T12:04:14;3.00;;;1.00;;
28587;SDS011;15787;49.662;10.162;2022-08-03T12:06:56;1.10;;;0.88;;
28587;SDS011;15787;49.662;10.162;2022-08-03T12:09:24;2.78;;;1.02;;
28587;SDS011;15787;49.662;10.162;2022-08-03T12:11:52;1.88;;;0.95;;
28587;SDS011;15787;49.662;10.162;2022-08-03T12:14:27;3.67;;;1.10;;
28587;SDS011;15787;49.662;10.162;2022-08-03T12:19:44;5.28;;;1.20;;
28587;SDS011;15787;49.662;10.162;2022-08-03T12:22:12;1.77;;;1.17;;
28587;SDS011;15787;49.662;10.162;2022-08-03T12:27:12;3.28;;;1.60;;
28587;SDS011;15787;49.662;10.162;2022-08-03T12:29:51;2.08;;;0.93;;
28587;SDS011;15787;49.662;10.162;2022-08-03T12:32:24;2.60;;;1.10;;
28587;SDS011;15787;49.662;10.162;2022-08-03T12:34:53;2.88;;;1.20;;
28587;SDS011;15787;49.662;10.162;2022-08-03T12:37:25;1.60;;;1.20;;
28587;SDS011;15787;49.662;10.162;2022-08-03T12:39:54;5.20;;;1.38;;
28587;SDS011;15787;49.662;10.162;2022-08-03T12:42:29;3.28;;;0.95;;
28587;SDS011;15787;49.662;10.162;2022-08-03T12:44:59;2.42;;;1.65;;
28587;SDS011;15787;49.662;10.162;2022-08-03T12:47:27;3.47;;;1.33;;
28587;SDS011;15787;49.662;10.162;2022-08-03T12:49:54;1.65;;;1.00;;
28587;SDS011;15787;49.662;10.162;2022-08-03T12:52:22;2.60;;;1.35;;
28587;SDS011;15787;49.662;10.162;2022-08-03T12:54:55;2.28;;;1.17;;
28587;SDS011;15787;49.662;10.162;2022-08-03T12:57:25;14.23;;;2.55;;
28587;SDS011;15787;49.662;10.162;2022-08-03T13:00:11;9.48;;;1.30;;
28587;SDS011;15787;49.662;10.162;2022-08-03T13:02:58;3.50;;;1.30;;
28587;SDS011;15787;49.662;10.162;2022-08-03T13:05:47;5.00;;;1.38;;
28587;SDS011;15787;49.662;10.162;2022-08-03T13:08:18;4.90;;;0.98;;
28587;SDS011;15787;49.662;10.162;2022-08-03T13:10:46;3.15;;;1.10;;
28587;SDS011;15787;49.662;10.162;2022-08-03T13:13:15;2.22;;;1.13;;
28587;SDS011;15787;49.662;10.162;2022-08-03T13:15:44;3.15;;;1.15;;
28587;SDS011;15787;49.662;10.162;2022-08-03T13:18:13;3.85;;;1.17;;
28587;SDS011;15787;49.662;10.162;2022-08-03T13:20:42;2.13;;;1.10;;
28587;SDS011;15787;49.662;10.162;2022-08-03T13:23:10;2.67;;;0.88;;
28587;SDS011;15787;49.662;10.162;2022-08-03T13:25:48;2.65;;;1.10;;
28587;SDS011;15787;49.662;10.162;2022-08-03T13:28:21;3.13;;;1.10;;
28587;SDS011;15787;49.662;10.162;2022-08-03T13:30:50;3.08;;;1.20;;
28587;SDS011;15787;49.662;10.162;2022-08-03T13:33:20;3.28;;;1.20;;
28587;SDS011;15787;49.662;10.162;2022-08-03T13:35:48;2.53;;;1.20;;
28587;SDS011;15787;49.662;10.162;2022-08-03T13:38:15;3.08;;;1.20;;
28587;SDS011;15787;49.662;10.162;2022-08-03T13:40:46;2.80;;;1.30;;
28587;SDS011;15787;49.662;10.162;2022-08-03T13:43:15;1.23;;;0.90;;
28587;SDS011;15787;49.662;10.162;2022-08-03T13:45:43;2.28;;;1.05;;
28587;SDS011;15787;49.662;10.162;2022-08-03T13:48:20;3.40;;;1.90;;
28587;SDS011;15787;49.662;10.162;2022-08-03T13:51:03;2.40;;;1.10;;
28587;SDS011;15787;49.662;10.162;2022-08-03T13:53:48;2.60;;;1.10;;
28587;SDS011;15787;49.662;10.162;2022-08-03T13:56:16;2.05;;;1.00;;
28587;SDS011;15787;49.662;10.162;2022-08-03T13:58:44;1.70;;;1.00;;
28587;SDS011;15787;49.662;10.162;2022-08-03T14:01:12;2.25;;;1.30;;
28587;SDS011;15787;49.662;10.162;2022-08-03T14:03:41;2.33;;;1.00;;
28587;SDS011;15787;49.662;10.162;2022-08-03T14:06:09;2.33;;;1.15;;
28587;SDS011;15787;49.662;10.162;2022-08-03T14:08:37;2.15;;;1.38;;
28587;SDS011;15787;49.662;10.162;2022-08-03T14:11:05;2.40;;;1.10;;
28587;SDS011;15787;49.662;10.162;2022-08-03T14:13:33;5.30;;;1.40;;
28587;SDS011;15787;49.662;10.162;2022-08-03T14:16:01;2.13;;;1.08;;
28587;SDS011;15787;49.662;10.162;2022-08-03T14:18:35;1.38;;;1.10;;
28587;SDS011;15787;49.662;10.162;2022-08-03T14:21:08;2.83;;;1.20;;
28587;SDS011;15787;49.662;10.162;2022-08-03T14:23:35;1.40;;;0.90;;
28587;SDS011;15787;49.662;10.162;2022-08-03T14:26:04;3.08;;;1.17;;
28587;SDS011;15787;49.662;10.162;2022-08-03T14:28:32;3.20;;;1.10;;
28587;SDS011;15787;49.662;10.162;2022-08-03T14:31:00;1.83;;;1.10;;
28587;SDS011;15787;49.662;10.162;2022-08-03T14:33:29;2.67;;;0.90;;
28587;SDS011;15787;49.662;10.162;2022-08-03T14:35:57;2.20;;;1.13;;
28587;SDS011;15787;49.662;10.162;2022-08-03T14:38:26;3.92;;;1.10;;
28587;SDS011;15787;49.662;10.162;2022-08-03T14:40:54;1.95;;;0.98;;
28587;SDS011;15787;49.662;10.162;2022-08-03T14:43:22;3.20;;;1.13;;
28587;SDS011;15787;49.662;10.162;2022-08-03T14:45:50;7.05;;;1.30;;
28587;SDS011;15787;49.662;10.162;2022-08-03T14:48:19;3.58;;;1.20;;
28587;SDS011;15787;49.662;10.162;2022-08-03T14:51:07;4.05;;;1.30;;
28587;SDS011;15787;49.662;10.162;2022-08-03T14:53:37;4.22;;;1.13;;
28587;SDS011;15787;49.662;10.162;2022-08-03T14:56:04;1.67;;;1.20;;
28587;SDS011;15787;49.662;10.162;2022-08-03T14:58:36;1.85;;;1.00;;
28587;SDS011;15787;49.662;10.162;2022-08-03T15:01:04;4.32;;;1.23;;
28587;SDS011;15787;49.662;10.162;2022-08-03T15:03:53;1.85;;;1.08;;
28587;SDS011;15787;49.662;10.162;2022-08-03T15:06:21;3.22;;;1.30;;
28587;SDS011;15787;49.662;10.162;2022-08-03T15:08:50;1.52;;;1.10;;
28587;SDS011;15787;49.662;10.162;2022-08-03T15:11:39;1.70;;;1.00;;
28587;SDS011;15787;49.662;10.162;2022-08-03T15:14:07;1.95;;;1.20;;
28587;SDS011;15787;49.662;10.162;2022-08-03T15:16:38;3.00;;;1.10;;
28587;SDS011;15787;49.662;10.162;2022-08-03T15:19:06;3.53;;;0.95;;
28587;SDS011;15787;49.662;10.162;2022-08-03T15:21:54;2.17;;;1.13;;
28587;SDS011;15787;49.662;10.162;2022-08-03T15:24:27;2.38;;;1.02;;
28587;SDS011;15787;49.662;10.162;2022-08-03T15:26:55;1.50;;;1.00;;
28587;SDS011;15787;49.662;10.162;2022-08-03T15:29:23;2.42;;;1.10;;
28587;SDS011;15787;49.662;10.162;2022-08-03T15:32:11;5.72;;;1.40;;
28587;SDS011;15787;49.662;10.162;2022-08-03T15:34:40;2.13;;;1.30;;